Time;durP1;ratioP1;P1;durP2;ratioP2;P2;SDS_P1;SDS_P2;PMS_P1;PMS_P2;Temp;Humidity;BMP_temperature;BMP_pressure;BME280_temperature;BME280_humidity;BME280_pressure;Samples;Min_cycle;Max_cycle;Signal;HPM_P1;HPM_P2
2024/03/01 00:00:13;;;;;;;42.10;21.45;;;;;;;2.60;100.00;100028.03;5048650;28;20463;-79
2024/03/01 00:02:42;;;;;;;44.42;21.48;;;;;;;2.63;100.00;100032.91;5050829;28;20437;-79
2024/03/01 00:05:16;;;;;;;41.72;21.02;;;;;;;2.61;100.00;100024.31;5060995;28;20428;-78
2024/03/01 00:07:44;;;;;;;47.57;21.73;;;;;;;2.54;100.00;100023.63;5055264;28;20434;-79
2024/03/01 00:10:13;;;;;;;41.65;20.48;;;;;;;2.51;100.00;100022.25;5053980;28;20788;-78
2024/03/01 00:12:46;;;;;;;41.70;20.98;;;;;;;2.47;100.00;100013.06;5056460;28;20435;-78
2024/03/01 00:15:16;;;;;;;41.85;20.63;;;;;;;2.49;100.00;100005.56;5057897;28;20431;-79
2024/03/01 00:17:49;;;;;;;40.10;21.55;;;;;;;2.47;100.00;100014.91;5059484;28;20433;-78
2024/03/01 00:20:17;;;;;;;46.60;21.47;;;;;;;2.40;100.00;100004.31;5054216;28;20456;-79
2024/03/01 00:22:47;;;;;;;44.55;21.40;;;;;;;2.41;100.00;100008.63;5053082;28;20933;-79
2024/03/01 00:25:21;;;;;;;46.10;21.70;;;;;;;2.32;100.00;100010.06;5052637;28;20425;-79
2024/03/01 00:27:54;;;;;;;49.75;22.02;;;;;;;2.32;100.00;99996.66;5055149;28;20419;-79
2024/03/01 00:30:28;;;;;;;48.33;22.80;;;;;;;2.26;100.00;100003.81;5053051;28;20431;-79
2024/03/01 00:33:03;;;;;;;45.70;22.25;;;;;;;2.29;100.00;100002.50;5054350;28;20428;-79
2024/03/01 00:35:31;;;;;;;48.35;23.08;;;;;;;2.27;100.00;100002.75;5053611;28;20984;-79
2024/03/01 00:37:59;;;;;;;50.13;23.27;;;;;;;2.27;100.00;99996.59;5054861;28;20431;-78
2024/03/01 00:40:28;;;;;;;51.63;24.05;;;;;;;2.23;100.00;99990.88;5062412;28;20433;-78
2024/03/01 00:42:56;;;;;;;44.00;21.52;;;;;;;2.26;100.00;99990.38;5058855;28;20433;-79
2024/03/01 00:45:31;;;;;;;49.92;22.38;;;;;;;2.20;100.00;99992.16;5051152;28;20436;-79
2024/03/01 00:47:59;;;;;;;47.42;23.02;;;;;;;2.29;100.00;99994.47;5054847;28;20403;-78
2024/03/01 00:50:32;;;;;;;46.83;22.55;;;;;;;2.30;100.00;99998.78;5055066;28;20450;-78
2024/03/01 00:53:06;;;;;;;48.22;23.05;;;;;;;2.25;100.00;99996.00;5056296;28;20430;-78
2024/03/01 00:55:39;;;;;;;49.28;23.70;;;;;;;2.21;100.00;99993.81;5058674;28;20430;-78
2024/03/01 00:58:12;;;;;;;46.88;22.05;;;;;;;2.19;100.00;99984.34;5053444;28;20471;-78
2024/03/01 01:00:42;;;;;;;46.58;22.27;;;;;;;2.16;100.00;99987.53;5056633;28;20440;-79
2024/03/01 01:03:15;;;;;;;48.17;22.90;;;;;;;2.14;100.00;99979.72;5052681;28;20423;-79
2024/03/01 01:05:48;;;;;;;49.17;22.90;;;;;;;2.13;100.00;99985.34;5053703;28;20423;-79
2024/03/01 01:08:21;;;;;;;45.78;22.33;;;;;;;2.14;100.00;99978.88;5060507;28;20987;-79
2024/03/01 01:10:54;;;;;;;50.80;22.50;;;;;;;2.07;100.00;99979.03;5054775;28;20433;-79
2024/03/01 01:13:23;;;;;;;46.17;22.30;;;;;;;2.07;100.00;99978.22;5049960;28;20417;-79
2024/03/01 01:15:57;;;;;;;46.72;22.45;;;;;;;2.04;100.00;99968.78;5057255;28;20417;-79
2024/03/01 01:18:30;;;;;;;45.92;22.60;;;;;;;1.96;100.00;99963.81;5055700;28;20425;-78
2024/03/01 01:21:04;;;;;;;50.30;23.77;;;;;;;1.93;100.00;99965.09;5054870;28;20421;-79
2024/03/01 01:23:32;;;;;;;53.22;23.52;;;;;;;1.99;100.00;99957.94;5053142;28;20411;-79
2024/03/01 01:26:06;;;;;;;47.47;22.85;;;;;;;1.93;100.00;99959.72;5055435;28;20430;-79
2024/03/01 01:28:34;;;;;;;48.10;22.05;;;;;;;1.92;100.00;99954.59;5053702;28;20801;-79
2024/03/01 01:31:09;;;;;;;51.95;23.58;;;;;;;1.93;100.00;99957.03;5053849;28;20421;-79
2024/03/01 01:33:42;;;;;;;49.88;23.88;;;;;;;1.92;100.00;99955.44;5053518;28;20419;-78
2024/03/01 01:36:15;;;;;;;51.20;23.83;;;;;;;1.87;100.00;99944.59;5062231;28;20423;-79
2024/03/01 01:38:44;;;;;;;48.50;23.40;;;;;;;1.82;100.00;99947.19;5058314;28;22341;-79
2024/03/01 01:41:17;;;;;;;50.72;23.27;;;;;;;1.85;100.00;99941.31;5060166;28;20421;-78
2024/03/01 01:43:46;;;;;;;48.60;23.85;;;;;;;1.94;100.00;99937.22;5059334;28;20852;-79
2024/03/01 01:46:16;;;;;;;50.40;22.73;;;;;;;1.89;100.00;99933.63;5058029;28;20428;-79
2024/03/01 01:48:50;;;;;;;51.42;23.42;;;;;;;1.87;100.00;99929.31;5057088;28;20421;-78
2024/03/01 01:51:24;;;;;;;49.20;23.63;;;;;;;1.85;100.00;99919.88;5060297;28;20776;-79
2024/03/01 01:53:58;;;;;;;49.40;22.65;;;;;;;1.90;100.00;99924.53;5056715;28;20433;-78
2024/03/01 01:56:31;;;;;;;51.10;23.90;;;;;;;1.88;100.00;99916.72;5064946;28;20431;-79
2024/03/01 01:59:00;;;;;;;50.38;23.67;;;;;;;1.91;100.00;99918.13;5058859;28;20937;-79
2024/03/01 02:01:30;;;;;;;48.65;23.42;;;;;;;1.85;100.00;99925.22;5072882;28;20421;-79
2024/03/01 02:03:58;;;;;;;51.83;24.35;;;;;;;1.81;100.00;99918.72;5059411;28;20412;-78
2024/03/01 02:06:31;;;;;;;48.03;22.95;;;;;;;1.83;100.00;99906.69;5058364;28;20423;-78
2024/03/01 02:09:13;;;;;;;49.03;23.35;;;;;;;1.77;100.00;99896.94;5060376;28;20998;-79
2024/03/01 02:11:47;;;;;;;49.25;23.27;;;;;;;1.79;100.00;99910.13;5062870;28;21056;-79
2024/03/01 02:14:15;;;;;;;50.33;23.25;;;;;;;1.72;100.00;99893.34;5058625;28;20424;-78
2024/03/01 02:16:50;;;;;;;52.63;23.45;;;;;;;1.72;100.00;99899.53;5058659;28;20422;-78
2024/03/01 02:19:18;;;;;;;54.72;24.63;;;;;;;1.67;100.00;99894.88;5057228;28;20424;-78
2024/03/01 02:22:02;;;;;;;50.50;23.58;;;;;;;1.66;100.00;99889.78;5058500;28;20421;-78
2024/03/01 02:24:31;;;;;;;51.03;23.48;;;;;;;1.70;100.00;99886.34;5059908;28;20447;-78
2024/03/01 02:27:05;;;;;;;48.17;23.40;;;;;;;1.65;100.00;99878.22;5072270;28;21047;-78
2024/03/01 02:29:39;;;;;;;50.92;23.05;;;;;;;1.75;100.00;99882.94;5061416;28;20421;-78
2024/03/01 02:32:13;;;;;;;52.15;24.05;;;;;;;1.68;100.00;99883.09;5060569;28;20427;-78
2024/03/01 02:34:47;;;;;;;51.75;23.77;;;;;;;1.69;100.00;99881.22;5063982;28;20425;-79
2024/03/01 02:37:20;;;;;;;53.75;23.52;;;;;;;1.63;100.00;99890.22;5064765;28;20432;-78
2024/03/01 02:39:54;;;;;;;50.13;23.08;;;;;;;1.63;100.00;99884.88;5056417;28;20418;-78
2024/03/01 02:42:23;;;;;;;50.40;23.40;;;;;;;1.62;100.00;99877.88;5055950;28;20431;-78
2024/03/01 02:44:56;;;;;;;50.40;23.05;;;;;;;1.67;100.00;99876.13;5056330;28;20417;-79
2024/03/01 02:47:29;;;;;;;54.55;23.75;;;;;;;1.66;100.00;99871.00;5058451;28;20968;-79
2024/03/01 02:49:58;;;;;;;52.92;23.27;;;;;;;1.67;100.00;99870.75;5060883;28;20425;-78
2024/03/01 02:52:31;;;;;;;46.33;21.23;;;;;;;1.70;100.00;99872.94;5060515;28;20425;-78
2024/03/01 02:55:06;;;;;;;51.45;23.38;;;;;;;1.64;100.00;99873.91;5059199;28;20415;-79
2024/03/01 02:57:39;;;;;;;53.83;23.90;;;;;;;1.60;100.00;99869.25;5060834;28;20436;-79
2024/03/01 03:00:14;;;;;;;51.50;23.67;;;;;;;1.62;100.00;99867.97;5063988;28;20790;-78
2024/03/01 03:02:43;;;;;;;51.58;23.45;;;;;;;1.69;100.00;99863.25;5056508;28;20406;-78
2024/03/01 03:05:12;;;;;;;53.13;23.27;;;;;;;1.59;100.00;99860.41;5057548;28;20448;-78
2024/03/01 03:07:40;;;;;;;51.33;23.13;;;;;;;1.58;100.00;99852.59;5060099;28;20425;-78
2024/03/01 03:10:10;;;;;;;50.47;23.73;;;;;;;1.60;100.00;99855.84;5071559;28;20421;-78
2024/03/01 03:12:39;;;;;;;53.10;23.25;;;;;;;1.61;100.00;99860.16;5055494;28;20417;-78
2024/03/01 03:15:12;;;;;;;53.40;23.17;;;;;;;1.57;100.00;99851.78;5055850;28;20427;-79
2024/03/01 03:17:41;;;;;;;52.07;23.30;;;;;;;1.63;100.00;99844.63;5054762;28;20494;-78
2024/03/01 03:20:17;;;;;;;53.17;23.95;;;;;;;1.52;100.00;99849.03;5055362;28;20445;-78
2024/03/01 03:22:51;;;;;;;51.47;22.35;;;;;;;1.48;100.00;99843.31;5057886;28;20905;-79
2024/03/01 03:25:25;;;;;;;53.33;23.30;;;;;;;1.44;100.00;99844.03;5056167;28;21774;-78
2024/03/01 03:27:59;;;;;;;55.20;23.05;;;;;;;1.45;100.00;99837.59;5058830;28;20425;-79
2024/03/01 03:30:27;;;;;;;55.07;23.27;;;;;;;1.52;100.00;99854.38;5055882;28;20499;-78
2024/03/01 03:33:00;;;;;;;49.95;22.98;;;;;;;1.51;100.00;99848.19;5058943;28;20754;-78
2024/03/01 03:35:28;;;;;;;54.33;24.03;;;;;;;1.47;100.00;99852.41;5056796;28;20496;-79
2024/03/01 03:38:03;;;;;;;52.58;22.95;;;;;;;1.47;100.00;99839.00;5056949;28;20480;-78
2024/03/01 03:40:37;;;;;;;54.17;23.60;;;;;;;1.39;100.00;99847.41;5058091;28;20425;-78
2024/03/01 03:43:11;;;;;;;52.42;22.25;;;;;;;1.42;100.00;99846.13;5055706;28;20432;-79
2024/03/01 03:45:44;;;;;;;51.22;23.05;;;;;;;1.45;100.00;99845.66;5062791;28;20453;-79
2024/03/01 03:48:18;;;;;;;48.72;23.38;;;;;;;1.34;100.00;99844.63;5058898;28;20801;-78
2024/03/01 03:50:51;;;;;;;53.42;22.80;;;;;;;1.35;100.00;99854.31;5052692;28;20809;-79
2024/03/01 03:53:24;;;;;;;48.15;22.15;;;;;;;1.39;100.00;99852.78;5058534;28;20901;-78
2024/03/01 03:55:59;;;;;;;53.35;23.23;;;;;;;1.33;100.00;99857.25;5061757;28;20425;-79
2024/03/01 03:58:32;;;;;;;52.60;22.65;;;;;;;1.35;100.00;99857.00;5057129;28;20421;-79
2024/03/01 04:01:08;;;;;;;52.05;23.33;;;;;;;1.34;100.00;99856.19;5054281;28;20854;-79
2024/03/01 04:03:41;;;;;;;56.10;24.48;;;;;;;1.35;100.00;99854.31;5056231;28;20418;-79
2024/03/01 04:06:09;;;;;;;58.97;23.60;;;;;;;1.33;100.00;99853.75;5054619;28;20891;-79
2024/03/01 04:08:38;;;;;;;53.88;23.73;;;;;;;1.33;100.00;99865.28;5058847;28;20408;-79
2024/03/01 04:11:12;;;;;;;55.40;23.88;;;;;;;1.33;100.00;99857.25;5055392;28;20800;-79
2024/03/01 04:13:46;;;;;;;51.00;23.08;;;;;;;1.34;100.00;99856.19;5061553;28;20423;-79
2024/03/01 04:16:19;;;;;;;53.83;23.10;;;;;;;1.33;100.00;99859.13;5057955;28;20421;-79
2024/03/01 04:18:53;;;;;;;50.97;21.85;;;;;;;1.34;100.00;99856.19;5058994;28;20419;-78
2024/03/01 04:21:26;;;;;;;52.15;22.40;;;;;;;1.35;100.00;99865.88;5054205;28;20434;-79
2024/03/01 04:24:00;;;;;;;57.35;23.00;;;;;;;1.30;100.00;99860.41;5055538;28;20428;-79
2024/03/01 04:26:29;;;;;;;53.10;23.30;;;;;;;1.31;100.00;99859.34;5060132;28;21047;-79
2024/03/01 04:29:03;;;;;;;49.95;22.63;;;;;;;1.35;100.00;99865.03;5055793;28;20425;-78
2024/03/01 04:31:32;;;;;;;57.20;23.23;;;;;;;1.24;100.00;99863.22;5070568;28;20470;-78
2024/03/01 04:34:06;;;;;;;53.28;22.83;;;;;;;1.21;100.00;99855.66;5056104;28;20417;-78
2024/03/01 04:36:39;;;;;;;54.40;22.42;;;;;;;1.27;100.00;99858.22;5053453;28;20491;-78
2024/03/01 04:39:14;;;;;;;53.57;22.87;;;;;;;1.24;100.00;99853.31;5055892;28;20457;-78
2024/03/01 04:41:48;;;;;;;50.55;21.63;;;;;;;1.16;100.00;99849.16;5062916;28;20429;-79
2024/03/01 04:44:22;;;;;;;53.03;22.35;;;;;;;1.14;100.00;99850.44;5063501;28;20438;-78
2024/03/01 04:46:50;;;;;;;52.33;22.43;;;;;;;1.14;100.00;99843.19;5055071;28;20421;-78
2024/03/01 04:49:18;;;;;;;55.65;23.25;;;;;;;1.13;100.00;99852.31;5053804;28;21176;-78
2024/03/01 04:51:46;;;;;;;55.55;23.17;;;;;;;1.12;100.00;99848.00;5055181;28;20419;-78
2024/03/01 04:54:19;;;;;;;53.33;22.67;;;;;;;1.11;100.00;99841.00;5054125;28;20446;-78
2024/03/01 04:56:54;;;;;;;53.42;22.52;;;;;;;1.12;100.00;99836.44;5057060;28;20496;-79
2024/03/01 04:59:28;;;;;;;54.97;22.33;;;;;;;1.14;100.00;99839.72;5056770;28;20424;-79
2024/03/01 05:02:01;;;;;;;56.08;22.40;;;;;;;1.09;100.00;99839.59;5059293;28;20791;-78
2024/03/01 05:04:34;;;;;;;59.53;23.10;;;;;;;1.06;100.00;99827.50;5056665;28;20435;-79
2024/03/01 05:07:08;;;;;;;55.27;22.57;;;;;;;1.10;100.00;99839.38;5052892;28;20417;-79
2024/03/01 05:09:42;;;;;;;55.67;22.70;;;;;;;1.08;100.00;99843.31;5055894;28;20873;-79
2024/03/01 05:12:14;;;;;;;52.53;21.92;;;;;;;1.07;100.00;99839.03;5053950;28;20402;-78
2024/03/01 05:14:42;;;;;;;53.97;22.47;;;;;;;1.03;100.00;99838.69;5054193;28;20485;-78
2024/03/01 05:17:11;;;;;;;55.28;23.05;;;;;;;1.06;100.00;99829.38;5055135;28;20425;-78
2024/03/01 05:19:40;;;;;;;54.50;21.47;;;;;;;0.96;100.00;99827.31;5059559;28;20413;-78
2024/03/01 05:22:13;;;;;;;50.55;22.25;;;;;;;0.95;100.00;99831.03;5060728;28;20421;-78
2024/03/01 05:24:46;;;;;;;56.28;22.73;;;;;;;0.96;100.00;99828.09;5062750;28;20736;-79
2024/03/01 05:27:21;;;;;;;52.30;22.38;;;;;;;0.98;100.00;99835.91;5053963;28;20444;-78
2024/03/01 05:29:49;;;;;;;55.27;22.43;;;;;;;0.93;100.00;99825.91;5058344;28;20457;-79
2024/03/01 05:32:22;;;;;;;53.42;22.20;;;;;;;0.92;100.00;99831.50;5056915;28;21075;-79
2024/03/01 05:34:55;;;;;;;53.42;22.38;;;;;;;1.00;100.00;99828.47;5054592;28;20421;-79
2024/03/01 05:37:23;;;;;;;55.28;23.77;;;;;;;0.88;100.00;99830.34;5057245;28;20440;-79
2024/03/01 05:39:57;;;;;;;54.00;23.30;;;;;;;0.89;100.00;99821.28;5054815;28;20417;-78
2024/03/01 05:42:31;;;;;;;51.25;22.05;;;;;;;0.88;100.00;99831.16;5056819;28;21229;-79
2024/03/01 05:45:07;;;;;;;54.63;23.43;;;;;;;0.93;100.00;99830.47;5056588;28;20433;-79
2024/03/01 05:47:42;;;;;;;53.38;23.30;;;;;;;0.89;100.00;99832.78;5063871;28;20448;-79
2024/03/01 05:50:15;;;;;;;59.03;24.63;;;;;;;0.88;100.00;99833.03;5052948;28;20421;-79
2024/03/01 05:52:50;;;;;;;55.63;23.47;;;;;;;0.85;100.00;99832.44;5060320;28;20471;-78
2024/03/01 05:55:18;;;;;;;55.90;22.48;;;;;;;0.87;100.00;99836.75;5053337;28;20406;-78
2024/03/01 05:57:52;;;;;;;52.03;21.90;;;;;;;0.90;100.00;99836.28;5050163;28;20456;-79
2024/03/01 06:00:26;;;;;;;54.05;21.83;;;;;;;0.83;100.00;99834.56;5050505;28;20432;-78
2024/03/01 06:02:59;;;;;;;58.83;22.65;;;;;;;0.84;100.00;99836.19;5051305;28;20429;-78
2024/03/01 06:05:27;;;;;;;54.50;22.98;;;;;;;0.81;100.00;99847.34;5053534;28;21076;-78
2024/03/01 06:08:00;;;;;;;52.25;21.65;;;;;;;0.77;100.00;99837.34;5051318;28;20433;-79
2024/03/01 06:10:33;;;;;;;52.85;23.15;;;;;;;0.83;100.00;99836.44;5055084;28;20430;-79
2024/03/01 06:13:08;;;;;;;53.17;22.80;;;;;;;0.78;100.00;99844.34;5054966;28;20442;-78
2024/03/01 06:15:36;;;;;;;58.58;23.08;;;;;;;0.77;100.00;99843.50;5053416;28;20437;-79
2024/03/01 06:18:09;;;;;;;60.65;23.58;;;;;;;0.78;100.00;99841.66;5053387;28;20429;-78
2024/03/01 06:20:43;;;;;;;61.53;22.83;;;;;;;0.78;100.00;99842.47;5056992;28;20424;-79
2024/03/01 06:23:16;;;;;;;51.17;22.25;;;;;;;0.77;100.00;99838.16;5059398;28;20874;-78
2024/03/01 06:25:44;;;;;;;55.72;22.55;;;;;;;0.79;100.00;99838.75;5056488;28;20782;-78
2024/03/01 06:28:19;;;;;;;57.65;22.15;;;;;;;0.80;100.00;99845.75;5063052;28;20427;-78
2024/03/01 06:30:47;;;;;;;53.08;21.73;;;;;;;0.80;100.00;99847.59;5053032;28;20445;-78
2024/03/01 06:33:20;;;;;;;53.23;22.67;;;;;;;0.82;100.00;99843.63;5058459;28;20427;-78
2024/03/01 06:35:49;;;;;;;54.50;21.75;;;;;;;0.85;100.00;99845.81;5056673;28;20793;-78
2024/03/01 06:38:22;;;;;;;56.90;22.50;;;;;;;0.84;100.00;99844.22;5058564;28;20429;-78
2024/03/01 06:40:59;;;;;;;56.13;23.02;;;;;;;0.81;100.00;99833.97;5057376;28;20417;-79
2024/03/01 06:43:33;;;;;;;53.63;22.40;;;;;;;0.86;100.00;99838.63;5056991;28;20434;-79
2024/03/01 06:46:07;;;;;;;52.65;22.23;;;;;;;0.90;100.00;99844.31;5058968;28;20417;-78
2024/03/01 06:48:40;;;;;;;58.27;23.23;;;;;;;0.88;100.00;99847.22;5044292;28;20988;-79
2024/03/01 06:51:14;;;;;;;56.63;22.45;;;;;;;1.01;100.00;99852.31;5056914;28;20437;-78
2024/03/01 06:53:47;;;;;;;52.67;21.43;;;;;;;0.98;100.00;99852.81;5057229;28;20423;-78
2024/03/01 06:56:21;;;;;;;52.42;21.17;;;;;;;1.00;100.00;99850.69;5053405;28;20429;-78
2024/03/01 06:58:58;;;;;;;56.08;22.67;;;;;;;1.04;100.00;99853.72;5055560;28;20446;-78
2024/03/01 07:01:28;;;;;;;54.15;22.65;;;;;;;1.01;100.00;99860.38;5052503;28;20413;-79
2024/03/01 07:04:01;;;;;;;52.65;21.38;;;;;;;1.25;100.00;99868.34;5055047;28;20423;-78
2024/03/01 07:06:32;;;;;;;51.97;21.50;;;;;;;1.16;100.00;99865.22;5071256;28;20423;-79
2024/03/01 07:09:00;;;;;;;52.75;21.38;;;;;;;1.18;100.00;99873.84;5055174;28;20429;-79
2024/03/01 07:11:28;;;;;;;52.75;22.30;;;;;;;1.25;100.00;99872.91;5053031;28;20506;-78
2024/03/01 07:13:58;;;;;;;53.57;21.87;;;;;;;1.29;100.00;99864.13;5052760;28;20433;-79
2024/03/01 07:16:27;;;;;;;55.15;21.55;;;;;;;1.34;100.00;99863.41;5050990;28;20432;-79
2024/03/01 07:19:00;;;;;;;54.05;22.02;;;;;;;1.43;100.00;99870.03;5051847;28;20439;-78
2024/03/01 07:21:33;;;;;;;57.92;22.42;;;;;;;1.56;100.00;99865.44;5053448;28;20431;-78
2024/03/01 07:24:01;;;;;;;54.13;21.88;;;;;;;1.59;100.00;99871.13;5053886;28;20429;-78
2024/03/01 07:26:30;;;;;;;54.53;20.93;;;;;;;1.63;100.00;99874.97;5054147;28;20545;-78
2024/03/01 07:28:59;;;;;;;53.05;21.83;;;;;;;1.67;100.00;99884.16;5050618;28;20426;-80
2024/03/01 07:31:27;;;;;;;50.53;21.70;;;;;;;1.69;100.00;99875.88;5051301;28;20421;-79
2024/03/01 07:33:56;;;;;;;54.05;22.23;;;;;;;1.82;100.00;99877.44;5052953;28;20417;-79
2024/03/01 07:36:24;;;;;;;54.60;21.60;;;;;;;1.76;100.00;99871.16;5053220;28;20421;-79
2024/03/01 07:38:52;;;;;;;49.05;20.88;;;;;;;1.76;100.00;99879.22;5053532;28;20433;-79
2024/03/01 07:41:26;;;;;;;54.83;22.40;;;;;;;1.83;100.00;99887.13;5053247;28;20421;-79
2024/03/01 07:43:54;;;;;;;47.45;20.45;;;;;;;1.83;100.00;99873.69;5053859;28;20431;-79
2024/03/01 07:46:28;;;;;;;49.55;21.50;;;;;;;1.89;100.00;99882.66;5049098;28;20448;-79
2024/03/01 07:49:02;;;;;;;53.70;22.90;;;;;;;1.88;100.00;99881.84;5049671;28;20440;-79
2024/03/01 07:51:35;;;;;;;53.72;22.13;;;;;;;1.87;100.00;99883.69;5049806;28;20437;-78
2024/03/01 07:54:09;;;;;;;51.78;21.65;;;;;;;1.95;100.00;99890.53;5055890;28;20425;-81
2024/03/01 07:56:44;;;;;;;54.42;22.08;;;;;;;2.02;100.00;99883.16;5049997;28;20434;-79
2024/03/01 07:59:17;;;;;;;52.90;22.10;;;;;;;2.04;100.00;99881.06;5049261;28;21027;-78
2024/03/01 08:01:52;;;;;;;49.05;20.92;;;;;;;2.23;100.00;99886.16;5053593;28;20435;-80
2024/03/01 08:04:26;;;;;;;46.42;20.50;;;;;;;2.18;100.00;99889.59;5052529;28;20907;-80
2024/03/01 08:06:55;;;;;;;47.20;21.00;;;;;;;2.30;100.00;99900.25;5052248;28;20459;-80
2024/03/01 08:09:36;;;;;;;49.85;21.95;;;;;;;2.26;100.00;99890.25;5053132;28;20427;-82
2024/03/01 08:12:13;;;;;;;48.88;21.10;;;;;;;2.43;100.00;99888.38;5054884;28;20792;-76
2024/03/01 08:14:42;;;;;;;56.08;22.55;;;;;;;2.38;100.00;99889.09;5054914;28;20429;-79
2024/03/01 08:17:13;;;;;;;53.42;20.95;;;;;;;2.42;100.00;99894.78;5052480;28;20749;-85
2024/03/01 08:19:48;;;;;;;45.85;21.20;;;;;;;2.46;100.00;99893.25;5056098;28;20423;-80
2024/03/01 08:22:24;;;;;;;49.53;22.02;;;;;;;2.53;100.00;99885.81;5009789;28;20426;-80
2024/03/01 08:24:55;;;;;;;53.78;21.30;;;;;;;2.61;100.00;99890.00;5048013;28;20421;-80
2024/03/01 08:27:31;;;;;;;47.70;21.60;;;;;;;2.65;100.00;99888.44;5023923;28;20442;-79
2024/03/01 08:30:22;;;;;;;47.08;21.50;;;;;;;2.82;100.00;99884.91;5043172;28;21005;-80
2024/03/01 08:32:51;;;;;;;50.95;22.40;;;;;;;2.87;100.00;99893.84;5035283;28;20561;-79
2024/03/01 08:35:24;;;;;;;50.88;21.50;;;;;;;2.97;100.00;99895.84;5032632;28;20420;-79
2024/03/01 08:37:58;;;;;;;49.15;22.75;;;;;;;3.03;100.00;99888.66;5040035;28;20427;-79
2024/03/01 08:40:50;;;;;;;52.42;22.05;;;;;;;3.12;100.00;99889.88;5034089;28;20439;-80
2024/03/01 08:43:18;;;;;;;51.40;21.98;;;;;;;3.17;100.00;99873.78;5032310;28;20955;-79
2024/03/01 08:45:52;;;;;;;51.28;21.55;;;;;;;3.34;100.00;99870.22;5038754;28;20427;-79
2024/03/01 08:48:32;;;;;;;46.60;20.90;;;;;;;3.37;100.00;99861.63;5033124;28;21338;-80
2024/03/01 08:51:05;;;;;;;47.78;21.00;;;;;;;3.54;100.00;99850.81;5041520;28;20428;-80
2024/03/01 08:53:57;;;;;;;45.22;20.35;;;;;;;3.61;100.00;99847.91;5042664;28;20430;-79
2024/03/01 08:56:33;;;;;;;45.13;20.48;;;;;;;3.62;100.00;99853.03;5035346;28;20438;-79
2024/03/01 08:59:02;;;;;;;48.08;20.80;;;;;;;3.78;100.00;99864.75;5043616;28;20423;-79
2024/03/01 09:01:47;;;;;;;43.27;20.40;;;;;;;3.85;100.00;99870.75;5032362;28;20451;-79
2024/03/01 09:04:28;;;;;;;46.17;20.88;;;;;;;3.92;100.00;99862.44;5031052;28;20435;-79
2024/03/01 09:07:08;;;;;;;44.25;19.83;;;;;;;4.03;100.00;99863.34;5035947;28;20443;-80
2024/03/01 09:09:43;;;;;;;46.40;20.65;;;;;;;4.13;100.00;99854.53;5036688;28;20428;-79
2024/03/01 09:12:25;;;;;;;42.45;19.77;;;;;;;4.22;100.00;99861.09;5037871;28;21271;-79
2024/03/01 09:15:00;;;;;;;43.63;20.50;;;;;;;4.39;100.00;99864.47;5034348;28;20428;-80
2024/03/01 09:17:34;;;;;;;41.40;19.83;;;;;;;4.48;100.00;99870.16;5036885;28;20423;-79
2024/03/01 09:20:15;;;;;;;45.53;19.53;;;;;;;4.59;100.00;99858.38;5039991;28;20420;-79
2024/03/01 09:22:49;;;;;;;41.63;19.48;;;;;;;4.47;100.00;99865.03;5011763;28;20439;-79
2024/03/01 09:25:53;;;;;;;43.20;19.90;;;;;;;4.54;100.00;99863.75;5036984;28;20431;-80
2024/03/01 09:28:22;;;;;;;39.63;20.00;;;;;;;4.58;100.00;99855.94;5040262;28;20423;-79
2024/03/01 09:30:52;;;;;;;39.92;19.63;;;;;;;4.81;100.00;99856.63;5043003;28;20450;-78
2024/03/01 09:33:23;;;;;;;39.33;19.77;;;;;;;4.90;100.00;99871.22;5034402;28;20444;-80
2024/03/01 09:35:53;;;;;;;40.30;19.45;;;;;;;4.88;100.00;99867.97;5038177;28;20420;-79
2024/03/01 09:38:22;;;;;;;42.80;19.50;;;;;;;5.00;100.00;99865.06;5033805;28;20424;-79
2024/03/01 09:41:27;;;;;;;42.25;19.50;;;;;;;4.98;100.00;99862.63;5033139;28;20434;-79
2024/03/01 09:44:07;;;;;;;40.53;19.73;;;;;;;5.15;100.00;99853.53;5030428;28;20435;-80
2024/03/01 09:46:56;;;;;;;43.63;20.08;;;;;;;5.23;100.00;99853.84;5016412;28;21563;-79
2024/03/01 09:49:35;;;;;;;43.40;20.23;;;;;;;5.31;100.00;99849.81;5010596;28;20424;-79
2024/03/01 09:52:14;;;;;;;42.95;20.50;;;;;;;5.45;100.00;99845.56;5040719;28;20904;-80
2024/03/01 09:54:49;;;;;;;41.45;20.00;;;;;;;5.48;100.00;99846.88;5028388;28;20419;-80
2024/03/01 09:57:24;;;;;;;42.53;20.80;;;;;;;5.48;100.00;99844.19;5036271;28;20423;-80
2024/03/01 10:00:05;;;;;;;40.88;20.13;;;;;;;5.55;100.00;99844.75;5044001;28;20446;-81
2024/03/01 10:02:51;;;;;;;41.90;20.15;;;;;;;5.64;100.00;99836.94;5039478;28;21041;-79
2024/03/01 10:05:40;;;;;;;43.72;20.75;;;;;;;5.74;100.00;99836.94;5045171;28;20423;-81
2024/03/01 10:08:23;;;;;;;41.85;19.63;;;;;;;5.82;100.00;99827.50;5045811;28;20423;-80
2024/03/01 10:11:18;;;;;;;41.10;19.65;;;;;;;5.92;100.00;99837.50;5041868;28;20432;-79
2024/03/01 10:14:02;;;;;;;43.65;20.45;;;;;;;6.06;100.00;99843.22;5036426;28;20427;-79
2024/03/01 10:16:51;;;;;;;38.45;18.77;;;;;;;6.09;100.00;99835.38;5037747;28;20431;-80
2024/03/01 10:19:40;;;;;;;39.25;19.35;;;;;;;6.05;100.00;99844.28;5034667;28;21304;-79
2024/03/01 10:22:22;;;;;;;40.50;18.95;;;;;;;6.15;100.00;99841.59;5015703;28;20480;-79
2024/03/01 10:25:14;;;;;;;37.42;18.45;;;;;;;6.30;100.00;99851.59;5033527;28;20419;-78
2024/03/01 10:27:52;;;;;;;39.45;19.00;;;;;;;6.39;100.00;99836.41;5044189;28;20453;-80
2024/03/01 10:30:31;;;;;;;35.83;18.23;;;;;;;6.47;100.00;99841.28;5034729;28;20433;-80
2024/03/01 10:33:21;;;;;;;36.45;18.58;;;;;;;6.57;100.00;99837.78;5035702;28;20578;-80
2024/03/01 10:36:06;;;;;;;37.00;18.83;;;;;;;6.69;100.00;99836.66;5039153;28;20435;-80
2024/03/01 10:38:52;;;;;;;39.60;19.20;;;;;;;6.71;100.00;99831.75;5041447;28;20435;-80
2024/03/01 10:41:48;;;;;;;39.33;18.73;;;;;;;6.76;100.00;99837.97;5041641;28;20432;-80
2024/03/01 10:44:23;;;;;;;38.03;18.42;;;;;;;6.87;100.00;99829.84;5040450;28;20435;-80
2024/03/01 10:46:59;;;;;;;38.85;18.95;;;;;;;6.88;100.00;99832.25;5036192;28;20436;-80
2024/03/01 10:49:35;;;;;;;33.05;17.00;;;;;;;6.97;100.00;99838.72;5039029;28;20446;-79
2024/03/01 10:52:11;;;;;;;34.75;18.58;;;;;;;7.07;100.00;99829.75;5039909;28;20439;-80
2024/03/01 10:54:47;;;;;;;37.80;17.75;;;;;;;7.11;100.00;99843.53;5041278;28;20519;-80
2024/03/01 10:57:23;;;;;;;37.13;18.23;;;;;;;7.21;100.00;99843.50;5030892;28;20986;-80
2024/03/01 11:00:03;;;;;;;32.65;17.23;;;;;;;7.27;100.00;99838.88;5039031;28;20429;-80
2024/03/01 11:02:46;;;;;;;36.70;18.30;;;;;;;7.38;100.00;99856.66;5042027;28;20427;-81
2024/03/01 11:05:27;;;;;;;34.80;17.35;;;;;;;7.45;100.00;99850.94;5041428;28;20420;-80
2024/03/01 11:08:11;;;;;;;33.63;17.48;;;;;;;7.44;100.00;99847.44;5038019;28;20427;-80
2024/03/01 11:10:48;;;;;;;35.42;18.15;;;;;;;7.49;100.00;99854.72;5037154;28;21113;-82
2024/03/01 11:13:25;;;;;;;35.00;16.70;;;;;;;7.61;100.00;99860.59;5038779;28;20440;-79
2024/03/01 11:15:59;;;;;;;34.00;17.23;;;;;;;7.68;100.00;99852.19;5040809;28;20518;-80
2024/03/01 11:18:35;;;;;;;36.42;17.67;;;;;;;7.82;100.00;99852.34;5036970;28;20435;-80
2024/03/01 11:21:12;;;;;;;33.38;17.33;;;;;;;7.94;100.00;99858.22;5011518;28;20730;-82
2024/03/01 11:23:43;;;;;;;33.20;17.00;;;;;;;7.94;100.00;99863.63;5023716;28;21474;-80
2024/03/01 11:26:17;;;;;;;35.03;17.08;;;;;;;8.08;100.00;99860.28;5047433;28;20984;-80
2024/03/01 11:28:57;;;;;;;33.38;16.75;;;;;;;8.09;100.00;99864.59;5034271;28;20430;-80
2024/03/01 11:31:31;;;;;;;33.10;17.20;;;;;;;8.18;100.00;99871.03;5032063;28;20442;-81
2024/03/01 11:34:07;;;;;;;31.67;16.03;;;;;;;8.11;100.00;99863.22;5028766;28;20427;-80
2024/03/01 11:36:54;;;;;;;35.58;17.45;;;;;;;8.21;100.00;99856.91;5034759;28;20435;-80
2024/03/01 11:39:40;;;;;;;33.35;16.67;;;;;;;8.32;100.00;99853.00;5040115;28;20834;-80
2024/03/01 11:42:24;;;;;;;30.58;15.85;;;;;;;8.19;100.00;99840.16;5040886;28;20755;-80
2024/03/01 11:45:06;;;;;;;34.05;17.08;;;;;;;8.23;100.00;99841.19;5035538;28;20454;-79
2024/03/01 11:47:50;;;;;;;32.72;16.92;;;;;;;8.24;100.00;99847.41;5045472;28;20819;-80